createdAt,value
2023-05-14T00:00:52.685Z,1.8
2023-05-14T00:02:00.434Z,2.6
2023-05-14T00:03:10.180Z,2.6
2023-05-14T00:04:19.812Z,3.3
2023-05-14T00:05:29.421Z,4.2
2023-05-14T00:06:39.088Z,3.6
2023-05-14T00:07:48.795Z,3.7
2023-05-14T00:08:58.445Z,3.5
2023-05-14T00:10:07.086Z,4.3
2023-05-14T00:11:15.757Z,3.9
2023-05-14T00:12:25.401Z,3.2
2023-05-14T00:13:34.107Z,4.2
2023-05-14T00:14:41.732Z,4.7
2023-05-14T00:15:51.448Z,4.5
2023-05-14T00:17:01.083Z,3.6
2023-05-14T00:18:09.743Z,3.6
2023-05-14T00:19:19.396Z,4
2023-05-14T00:20:28.098Z,4.5
2023-05-14T00:21:37.721Z,4.9
2023-05-14T00:22:46.386Z,4.1
2023-05-14T00:23:55.042Z,5
2023-05-14T00:25:04.788Z,4.4
2023-05-14T00:26:13.421Z,4.9
2023-05-14T00:27:23.138Z,4.6
2023-05-14T00:28:32.787Z,4.1
2023-05-14T00:29:42.540Z,4.2
2023-05-14T00:30:52.177Z,4.1
2023-05-14T00:32:00.854Z,3.6
2023-05-14T00:33:09.569Z,4.4
2023-05-14T00:34:18.252Z,4.5
2023-05-14T00:35:27.976Z,2.7
2023-05-14T00:36:37.628Z,3.7
2023-05-14T00:37:47.284Z,4.4
2023-05-14T00:38:55.986Z,4.2
2023-05-14T00:40:05.672Z,4.7
2023-05-14T00:41:14.324Z,4.3
2023-05-14T00:42:24.008Z,4.5
2023-05-14T00:43:33.665Z,3.7
2023-05-14T00:44:43.405Z,4.5
2023-05-14T00:45:52.078Z,3.9
2023-05-14T00:47:01.858Z,4.6
2023-05-14T00:48:11.399Z,3.8
2023-05-14T00:49:21.115Z,4.1
2023-05-14T00:50:29.760Z,4.4
2023-05-14T00:51:37.412Z,4.2
2023-05-14T00:52:47.085Z,4.9
2023-05-14T00:53:55.763Z,4.3
2023-05-14T00:55:05.430Z,4.1
2023-05-14T00:56:14.087Z,4.4
2023-05-14T00:57:21.855Z,4.6
2023-05-14T00:58:31.540Z,4.5
2023-05-14T00:59:40.176Z,4.7
2023-05-14T01:00:48.857Z,4.8
2023-05-14T01:01:58.540Z,4.1
2023-05-14T01:03:08.254Z,4.3
2023-05-14T01:04:16.861Z,4.6
2023-05-14T01:05:26.522Z,3.1
2023-05-14T01:06:36.218Z,4.3
2023-05-14T01:07:45.919Z,4.6
2023-05-14T01:08:55.572Z,4
2023-05-14T01:10:03.225Z,5
2023-05-14T01:11:12.886Z,3.6
2023-05-14T01:12:22.593Z,3.4
2023-05-14T01:13:32.253Z,3.2
2023-05-14T01:14:41.934Z,4
2023-05-14T01:15:51.659Z,2.5
2023-05-14T01:17:00.330Z,4.6
2023-05-14T01:18:09.020Z,3.3
2023-05-14T01:19:18.687Z,3.9
2023-05-14T01:20:28.376Z,4.3
2023-05-14T01:21:37.065Z,3.6
2023-05-14T01:22:46.730Z,3.5
2023-05-14T01:23:55.403Z,3.3
2023-05-14T01:25:04.094Z,3.3
2023-05-14T01:26:12.767Z,3.4
2023-05-14T01:27:21.420Z,3.6
2023-05-14T01:28:31.081Z,3.8
2023-05-14T01:29:40.852Z,2.8
2023-05-14T01:30:48.522Z,2.7
2023-05-14T01:31:58.209Z,2.4
2023-05-14T01:33:07.874Z,2.8
2023-05-14T01:34:17.566Z,2.8
2023-05-14T01:35:27.232Z,3.7
2023-05-14T01:36:36.868Z,3.6
2023-05-14T01:37:46.529Z,2.2
2023-05-14T01:38:55.184Z,3
2023-05-14T01:40:04.865Z,2.6
2023-05-14T01:41:14.515Z,3.7
2023-05-14T01:42:23.198Z,2.6
2023-05-14T01:43:32.846Z,2.9
2023-05-14T01:44:40.560Z,2.9
2023-05-14T01:45:49.238Z,2.1
2023-05-14T01:46:58.887Z,3.3
2023-05-14T01:48:07.550Z,2.2
2023-05-14T01:49:16.248Z,2.4
2023-05-14T01:50:26.005Z,2.4
2023-05-14T01:51:34.533Z,2.5
2023-05-14T01:52:43.174Z,3.1
2023-05-14T01:53:51.888Z,2.1
2023-05-14T01:54:59.533Z,1.4
2023-05-14T01:56:09.190Z,3.5
2023-05-14T01:57:18.876Z,3.1
2023-05-14T01:58:26.562Z,2.5
2023-05-14T01:59:36.211Z,3.5
2023-05-14T02:00:44.896Z,2
2023-05-14T02:01:54.573Z,2.9
2023-05-14T02:03:03.235Z,1.8
2023-05-14T02:04:10.966Z,1.8
2023-05-14T02:05:20.642Z,2.7
2023-05-14T02:06:29.455Z,1.9
2023-05-14T02:07:37.983Z,3.4
2023-05-14T02:08:47.638Z,3.2
2023-05-14T02:09:56.299Z,2.4
2023-05-14T02:11:05.972Z,2
2023-05-14T02:12:15.678Z,1.4
2023-05-14T02:13:23.326Z,3.5
2023-05-14T02:14:33.022Z,2.9
2023-05-14T02:15:42.665Z,2.1
2023-05-14T02:16:50.355Z,2.3
2023-05-14T02:17:59.043Z,2.7
2023-05-14T02:19:07.778Z,2.2
2023-05-14T02:20:16.351Z,4
2023-05-14T02:21:26.038Z,1.9
2023-05-14T02:22:34.760Z,3.7
2023-05-14T02:23:44.374Z,2.6
2023-05-14T02:24:53.076Z,3.8
2023-05-14T02:26:00.783Z,2.4
2023-05-14T02:27:10.429Z,2.7
2023-05-14T02:28:19.095Z,2.2
2023-05-14T02:29:28.763Z,2.3
2023-05-14T02:30:37.483Z,1.8
2023-05-14T02:31:46.203Z,2.3
2023-05-14T02:32:56.901Z,2.3
2023-05-14T02:34:06.479Z,1.9
2023-05-14T02:35:16.221Z,2.8
2023-05-14T02:36:25.923Z,2
2023-05-14T02:37:35.564Z,2.4
2023-05-14T02:38:45.244Z,2.5
2023-05-14T02:39:54.894Z,3
2023-05-14T02:41:04.586Z,3.1
2023-05-14T02:42:14.248Z,2.7
2023-05-14T02:43:22.892Z,2.4
2023-05-14T02:44:30.552Z,1.9
2023-05-14T02:45:40.210Z,2.2
2023-05-14T02:46:49.881Z,2
2023-05-14T02:47:59.528Z,2.8
2023-05-14T02:49:08.179Z,2
2023-05-14T02:50:16.899Z,2.2
2023-05-14T02:51:26.540Z,4.4
2023-05-14T02:52:35.191Z,2.7
2023-05-14T02:53:43.898Z,2
2023-05-14T02:54:53.586Z,3
2023-05-14T02:56:03.278Z,2.4
2023-05-14T02:57:12.931Z,2
2023-05-14T02:58:23.282Z,2.1
2023-05-14T02:59:31.321Z,3.1
2023-05-14T03:00:40.993Z,2.2
2023-05-14T03:01:49.657Z,2.3
2023-05-14T03:02:57.332Z,2.6
2023-05-14T03:04:06.981Z,1.4
2023-05-14T03:05:16.609Z,2.3
2023-05-14T03:06:27.258Z,2.4
2023-05-14T03:07:35.947Z,2.4
2023-05-14T03:08:43.629Z,2.2
2023-05-14T03:09:53.305Z,2.3
2023-05-14T03:11:02.984Z,2.7
2023-05-14T03:12:12.657Z,2
2023-05-14T03:13:21.375Z,2.5
2023-05-14T03:14:30.008Z,3.4
2023-05-14T03:15:39.662Z,2.3
2023-05-14T03:16:48.392Z,2.4
2023-05-14T03:17:57.060Z,2.6
2023-05-14T03:19:05.759Z,1.8
2023-05-14T03:20:14.346Z,5.9
2023-05-14T03:21:25.001Z,3.5
2023-05-14T03:22:33.663Z,2.2
2023-05-14T03:23:43.317Z,2.6
2023-05-14T03:24:52.968Z,1.9
2023-05-14T03:26:02.628Z,1.7
2023-05-14T03:27:11.365Z,4
2023-05-14T03:28:20.999Z,2.2
2023-05-14T03:29:29.674Z,1.3
2023-05-14T03:30:39.410Z,2.7
2023-05-14T03:31:49.033Z,1.5
2023-05-14T03:32:57.799Z,3
2023-05-14T03:34:07.371Z,2
2023-05-14T03:35:17.044Z,1.8
2023-05-14T03:36:24.694Z,2
2023-05-14T03:37:33.348Z,3
2023-05-14T03:38:41.997Z,3
2023-05-14T03:39:51.690Z,2.9
2023-05-14T03:41:00.373Z,2.3
2023-05-14T03:42:10.056Z,2.2
2023-05-14T03:43:19.808Z,2.8
2023-05-14T03:44:29.361Z,2.8
2023-05-14T03:45:39.068Z,3.8
2023-05-14T03:46:48.766Z,2.5
2023-05-14T03:47:57.507Z,2.3
2023-05-14T03:49:07.132Z,2.4
2023-05-14T03:50:16.791Z,3.2
2023-05-14T03:51:25.444Z,1.7
2023-05-14T03:52:35.136Z,1
2023-05-14T03:53:44.772Z,1.6
2023-05-14T03:54:53.443Z,3
2023-05-14T03:56:03.125Z,2.8
2023-05-14T03:57:10.770Z,1.3
2023-05-14T03:58:20.445Z,2.1
2023-05-14T03:59:30.118Z,2.4
2023-05-14T04:00:38.837Z,2.6
2023-05-14T04:01:48.502Z,1.7
2023-05-14T04:02:58.216Z,1.5
2023-05-14T04:04:07.831Z,1.4
2023-05-14T04:05:17.497Z,2
2023-05-14T04:06:26.160Z,1.6
2023-05-14T04:07:35.816Z,1.9
2023-05-14T04:08:44.445Z,3.5
2023-05-14T04:09:54.143Z,2.7
2023-05-14T04:11:03.777Z,2.1
2023-05-14T04:12:13.419Z,0.8
2023-05-14T04:13:23.077Z,4.3
2023-05-14T04:14:32.820Z,1.6
2023-05-14T04:15:40.467Z,1.2
2023-05-14T04:16:50.114Z,2.8
2023-05-14T04:17:59.846Z,1.2
2023-05-14T04:19:09.471Z,2.1
2023-05-14T04:20:18.096Z,3.3
2023-05-14T04:21:26.740Z,1.2
2023-05-14T04:22:35.384Z,2.3
2023-05-14T04:23:44.122Z,2.1
2023-05-14T04:24:52.779Z,1.7
2023-05-14T04:26:02.450Z,3
2023-05-14T04:27:12.097Z,2.1
2023-05-14T04:28:19.777Z,1.9
2023-05-14T04:29:29.463Z,1.8
2023-05-14T04:30:38.132Z,1.8
2023-05-14T04:31:47.819Z,3.2
2023-05-14T04:32:56.521Z,2.9
2023-05-14T04:34:04.171Z,1.7
2023-05-14T04:35:13.835Z,3.3
2023-05-14T04:36:23.500Z,2.3
2023-05-14T04:37:31.184Z,2.9
2023-05-14T04:38:40.873Z,3
2023-05-14T04:39:50.564Z,3.3
2023-05-14T04:40:59.251Z,3.8
2023-05-14T04:42:08.931Z,3.7
2023-05-14T04:43:17.607Z,3.2
2023-05-14T04:44:27.251Z,4.2
2023-05-14T04:45:36.938Z,3.8
2023-05-14T04:46:44.587Z,3.9
2023-05-14T04:47:54.283Z,4.5
2023-05-14T04:49:02.902Z,4
2023-05-14T04:50:12.571Z,3
2023-05-14T04:51:21.206Z,2
2023-05-14T04:52:29.898Z,2.8
2023-05-14T04:53:39.563Z,2.1
2023-05-14T04:54:49.269Z,3
2023-05-14T04:55:57.883Z,3.1
2023-05-14T04:57:07.562Z,3
2023-05-14T04:58:16.227Z,4.4
2023-05-14T04:59:25.892Z,2.1
2023-05-14T05:00:34.562Z,2.1
2023-05-14T05:01:43.258Z,2.4
2023-05-14T05:02:52.979Z,2.7
2023-05-14T05:04:02.565Z,3.2
2023-05-14T05:05:12.228Z,3.7
2023-05-14T05:06:21.941Z,3.2
2023-05-14T05:07:31.609Z,3.6
2023-05-14T05:08:40.254Z,3.8
2023-05-14T05:09:48.944Z,2.2
2023-05-14T05:10:58.640Z,4.1
2023-05-14T05:12:08.305Z,3.9
2023-05-14T05:13:16.969Z,2.6
2023-05-14T05:14:26.629Z,4.4
2023-05-14T05:15:36.326Z,2.6
2023-05-14T05:16:44.982Z,2
2023-05-14T05:17:54.683Z,2.6
2023-05-14T05:19:04.301Z,4.3
2023-05-14T05:20:13.974Z,1.7
2023-05-14T05:21:23.610Z,4.6
2023-05-14T05:22:32.279Z,2.9
2023-05-14T05:23:41.943Z,1.8
2023-05-14T05:24:51.609Z,3.9
2023-05-14T05:26:00.269Z,1.7
2023-05-14T05:27:09.921Z,2.3
2023-05-14T05:28:19.601Z,3
2023-05-14T05:29:29.276Z,2.2
2023-05-14T05:30:38.937Z,2.2
2023-05-14T05:31:47.703Z,2.7
2023-05-14T05:32:57.303Z,2.6
2023-05-14T05:34:06.982Z,1.3
2023-05-14T05:35:15.667Z,4.8
2023-05-14T05:36:25.321Z,1.4
2023-05-14T05:37:34.013Z,1.9
2023-05-14T05:38:42.699Z,2.5
2023-05-14T05:39:53.378Z,1.9
2023-05-14T05:41:01.079Z,2.1
2023-05-14T05:42:10.747Z,1.6
2023-05-14T05:43:19.414Z,3.3
2023-05-14T05:44:28.091Z,3.9
2023-05-14T05:45:37.770Z,2.2
2023-05-14T05:46:46.447Z,3.6
2023-05-14T05:47:56.177Z,3.7
2023-05-14T05:49:04.943Z,2
2023-05-14T05:50:13.485Z,1.9
2023-05-14T05:51:23.152Z,2.5
2023-05-14T05:52:32.808Z,3.7
2023-05-14T05:53:40.511Z,2.5
2023-05-14T05:54:50.171Z,2
2023-05-14T05:55:59.844Z,2.7
2023-05-14T05:57:09.498Z,1.8
2023-05-14T05:58:18.202Z,2.8
2023-05-14T05:59:26.883Z,2.7
2023-05-14T06:00:36.547Z,3.8
2023-05-14T06:01:45.222Z,4.2
2023-05-14T06:02:53.946Z,2.7
2023-05-14T06:04:03.532Z,4.8
2023-05-14T06:05:13.294Z,2.3
2023-05-14T06:06:22.847Z,3.1
2023-05-14T06:07:31.523Z,1.5
2023-05-14T06:08:41.201Z,1.4
2023-05-14T06:09:50.878Z,2.1
2023-05-14T06:11:00.551Z,2.8
2023-05-14T06:12:09.210Z,2.6
2023-05-14T06:13:19.876Z,2.3
2023-05-14T06:14:29.522Z,3.9
2023-05-14T06:15:39.181Z,2
2023-05-14T06:16:47.891Z,3.7
2023-05-14T06:17:57.569Z,2.7
2023-05-14T06:19:07.227Z,2
2023-05-14T06:20:16.856Z,2.3
2023-05-14T06:21:26.496Z,2.8
2023-05-14T06:22:36.134Z,2.1
2023-05-14T06:23:44.776Z,3.6
2023-05-14T06:24:53.422Z,2.5
2023-05-14T06:26:03.141Z,2.3
2023-05-14T06:27:11.792Z,1.8
2023-05-14T06:28:21.567Z,1.1
2023-05-14T06:29:30.151Z,1.6
2023-05-14T06:30:39.844Z,1.5
2023-05-14T06:31:49.526Z,1.4
2023-05-14T06:32:59.215Z,2.1
2023-05-14T06:34:07.851Z,1.7
2023-05-14T06:35:16.547Z,1.9
2023-05-14T06:36:26.232Z,1.6
2023-05-14T06:37:34.848Z,3.1
2023-05-14T06:38:45.545Z,1.2
2023-05-14T06:39:56.414Z,1
2023-05-14T06:41:04.890Z,2
2023-05-14T06:42:14.525Z,2.7
2023-05-14T06:43:24.174Z,1.4
2023-05-14T06:44:33.886Z,2.8
2023-05-14T06:45:44.559Z,2.5
2023-05-14T06:46:54.209Z,2.7
2023-05-14T06:48:03.978Z,2.8
2023-05-14T06:49:11.593Z,1.4
2023-05-14T06:50:21.386Z,2.5
2023-05-14T06:51:29.901Z,3.2
2023-05-14T06:52:40.521Z,1.8
2023-05-14T06:53:49.229Z,3.8
2023-05-14T06:54:58.906Z,2.1
2023-05-14T06:56:08.550Z,1.3
2023-05-14T06:57:17.220Z,2.2
2023-05-14T06:58:25.885Z,2
2023-05-14T06:59:35.705Z,2
2023-05-14T07:00:44.355Z,2
2023-05-14T07:01:54.037Z,1.3
2023-05-14T07:03:03.700Z,1.2
2023-05-14T07:04:11.332Z,1.6
2023-05-14T07:05:21.021Z,1.1
2023-05-14T07:06:29.666Z,2.5
2023-05-14T07:07:38.404Z,1.8
2023-05-14T07:08:48.041Z,2.4
2023-05-14T07:09:56.749Z,2.7
2023-05-14T07:11:06.415Z,2.8
2023-05-14T07:12:16.098Z,2.8
2023-05-14T07:13:27.670Z,2.2
2023-05-14T07:14:36.406Z,2.7
2023-05-14T07:15:44.070Z,1.9
2023-05-14T07:16:53.822Z,2.8
2023-05-14T07:18:02.464Z,3.6
2023-05-14T07:19:10.154Z,1.6
2023-05-14T07:20:19.755Z,1.5
2023-05-14T07:21:29.479Z,1.4
2023-05-14T07:22:38.172Z,2.2
2023-05-14T07:23:45.839Z,2.7
2023-05-14T07:24:54.482Z,1.1
2023-05-14T07:26:04.144Z,2.5
2023-05-14T07:27:13.841Z,2.5
2023-05-14T07:28:22.505Z,1.1
2023-05-14T07:29:32.154Z,1.4
2023-05-14T07:30:40.828Z,2.1
2023-05-14T07:31:49.614Z,3.4
2023-05-14T07:32:59.193Z,1.1
2023-05-14T07:34:08.848Z,1.9
2023-05-14T07:35:17.523Z,3.2
2023-05-14T07:36:26.228Z,2.7
2023-05-14T07:37:33.881Z,4.9
2023-05-14T07:38:43.549Z,1.3
2023-05-14T07:39:53.225Z,3.4
2023-05-14T07:41:01.876Z,3.6
2023-05-14T07:42:10.536Z,2.3
2023-05-14T07:43:20.173Z,2.2
2023-05-14T07:44:29.863Z,1.5
2023-05-14T07:45:38.531Z,2.2
2023-05-14T07:46:46.193Z,1.3
2023-05-14T07:47:55.919Z,2
2023-05-14T07:49:05.515Z,1.6
2023-05-14T07:50:15.222Z,2.7
2023-05-14T07:51:24.855Z,1.6
2023-05-14T07:52:33.503Z,1.6
2023-05-14T07:53:43.176Z,1
2023-05-14T07:54:52.820Z,1.8
2023-05-14T07:56:01.485Z,2.3
2023-05-14T07:57:11.121Z,1.7
2023-05-14T07:58:19.786Z,5.7
2023-05-14T07:59:28.442Z,1.2
2023-05-14T08:00:38.103Z,2.2
2023-05-14T08:01:45.782Z,1.5
2023-05-14T08:02:55.534Z,16.9
2023-05-14T08:04:04.160Z,1.4
2023-05-14T08:05:13.810Z,2.1
2023-05-14T08:06:23.476Z,2.2
2023-05-14T08:07:33.127Z,3.9
2023-05-14T08:08:41.815Z,0.9
2023-05-14T08:09:50.483Z,1.5
2023-05-14T08:10:59.192Z,1
2023-05-14T08:12:08.826Z,3.1
2023-05-14T08:13:18.509Z,1.4
2023-05-14T08:14:28.177Z,0.7
2023-05-14T08:15:37.855Z,2.4
2023-05-14T08:16:46.516Z,2.2
2023-05-14T08:17:56.229Z,1.1
2023-05-14T08:19:04.929Z,2
2023-05-14T08:20:13.546Z,1.4
2023-05-14T08:21:23.196Z,0.9
2023-05-14T08:22:31.888Z,1.7
2023-05-14T08:23:41.551Z,0.8
2023-05-14T08:24:51.228Z,1
2023-05-14T08:25:59.882Z,0.5
2023-05-14T08:27:08.545Z,1.8
2023-05-14T08:28:17.261Z,1.8
2023-05-14T08:29:25.890Z,2.1
2023-05-14T08:30:35.620Z,2
2023-05-14T08:31:44.270Z,0.7
2023-05-14T08:32:52.971Z,0.6
2023-05-14T08:34:02.598Z,1
2023-05-14T08:35:12.304Z,0.8
2023-05-14T08:36:20.970Z,1.4
2023-05-14T08:37:29.662Z,1.4
2023-05-14T08:38:38.336Z,1.8
2023-05-14T08:39:48.003Z,2.9
2023-05-14T08:40:56.669Z,1.3
2023-05-14T08:42:06.346Z,1.6
2023-05-14T08:43:16.001Z,1.7
2023-05-14T08:44:24.662Z,0.6
2023-05-14T08:45:34.375Z,1.1
2023-05-14T08:46:42.994Z,1
2023-05-14T08:47:52.801Z,1.8
2023-05-14T08:49:02.329Z,1.6
2023-05-14T08:50:10.999Z,2.2
2023-05-14T08:51:19.672Z,1.7
2023-05-14T08:52:29.358Z,1.5
2023-05-14T08:53:38.008Z,1.1
2023-05-14T08:54:47.655Z,1.9
2023-05-14T08:55:56.334Z,1
2023-05-14T08:57:06.032Z,1.5
2023-05-14T08:58:15.684Z,1.4
2023-05-14T08:59:24.353Z,1.2
2023-05-14T09:00:34.073Z,2.2
2023-05-14T09:01:43.730Z,0.5
2023-05-14T09:02:53.443Z,2.8
2023-05-14T09:04:02.100Z,2.9
2023-05-14T09:05:10.749Z,2.1
2023-05-14T09:06:20.487Z,1.2
2023-05-14T09:07:30.117Z,0.4
2023-05-14T09:08:38.789Z,2
2023-05-14T09:09:48.497Z,2.1
2023-05-14T09:10:57.171Z,1.7
2023-05-14T09:12:04.821Z,2
2023-05-14T09:13:14.469Z,1.6
2023-05-14T09:14:24.166Z,1.6
2023-05-14T09:15:33.790Z,0.7
2023-05-14T09:16:42.540Z,1.5
2023-05-14T09:17:51.127Z,1
2023-05-14T09:19:00.876Z,1.7
2023-05-14T09:20:10.457Z,3.6
2023-05-14T09:21:20.115Z,2.4
2023-05-14T09:22:29.784Z,0.9
2023-05-14T09:23:38.443Z,1
2023-05-14T09:24:46.221Z,0.9
2023-05-14T09:25:55.894Z,0.9
2023-05-14T09:27:04.544Z,1.6
2023-05-14T09:28:14.229Z,2.5
2023-05-14T09:29:23.895Z,0.6
2023-05-14T09:30:31.541Z,2.7
2023-05-14T09:31:41.231Z,0.7
2023-05-14T09:32:50.959Z,1.5
2023-05-14T09:34:00.544Z,1.1
2023-05-14T09:35:09.187Z,1
2023-05-14T09:36:17.857Z,2.5
2023-05-14T09:37:27.539Z,1.1
2023-05-14T09:38:37.305Z,1.2
2023-05-14T09:39:45.977Z,0.8
2023-05-14T09:40:55.624Z,2.6
2023-05-14T09:42:05.282Z,0.8
2023-05-14T09:43:13.928Z,1
2023-05-14T09:44:22.610Z,2.2
2023-05-14T09:45:31.221Z,1.9
2023-05-14T09:46:40.899Z,1.5
2023-05-14T09:47:50.664Z,1.8
2023-05-14T09:48:58.287Z,1.2
2023-05-14T09:50:07.921Z,2
2023-05-14T09:51:16.567Z,1.2
2023-05-14T09:52:26.271Z,1.9
2023-05-14T09:53:35.888Z,3
2023-05-14T09:54:45.527Z,1.3
2023-05-14T09:55:55.189Z,1.6
2023-05-14T09:57:04.862Z,1.5
2023-05-14T09:58:13.499Z,1.6
2023-05-14T09:59:23.146Z,1.7
2023-05-14T10:00:32.793Z,2.1
2023-05-14T10:01:42.572Z,2
2023-05-14T10:02:51.224Z,1
2023-05-14T10:03:59.840Z,2
2023-05-14T10:05:09.651Z,2.1
2023-05-14T10:06:19.207Z,1.2
2023-05-14T10:07:27.852Z,1.6
2023-05-14T10:08:37.524Z,0.4
2023-05-14T10:09:46.234Z,1.7
2023-05-14T10:10:54.888Z,1.5
2023-05-14T10:12:03.560Z,1.8
2023-05-14T10:13:11.279Z,2.9
2023-05-14T10:14:20.961Z,0.7
2023-05-14T10:15:30.697Z,0.6
2023-05-14T10:16:38.480Z,2.3
2023-05-14T10:17:48.017Z,0.8
2023-05-14T10:18:57.814Z,2.2
2023-05-14T10:20:06.384Z,0.7
2023-05-14T10:21:16.133Z,1
2023-05-14T10:22:25.766Z,1.8
2023-05-14T10:23:35.443Z,1.1
2023-05-14T10:24:45.161Z,1
2023-05-14T10:25:53.961Z,0.6
2023-05-14T10:27:03.711Z,1.4
2023-05-14T10:28:13.380Z,2.7
2023-05-14T10:29:23.100Z,1.2
2023-05-14T10:30:32.856Z,1.5
2023-05-14T10:31:41.678Z,0.7
2023-05-14T10:32:51.278Z,0.8
2023-05-14T10:34:00.945Z,1.9
2023-05-14T10:35:08.632Z,1.5
2023-05-14T10:36:18.350Z,0.7
2023-05-14T10:37:27.042Z,0.8
2023-05-14T10:38:36.710Z,1.6
2023-05-14T10:39:45.408Z,1.4
2023-05-14T10:40:55.094Z,1.4
2023-05-14T10:42:04.765Z,0.7
2023-05-14T10:43:13.532Z,1
2023-05-14T10:44:23.161Z,0.6
2023-05-14T10:45:32.832Z,0.7
2023-05-14T10:46:42.553Z,0.6
2023-05-14T10:47:52.195Z,1.3
2023-05-14T10:49:01.867Z,2
2023-05-14T10:50:10.514Z,1.6
2023-05-14T10:51:20.227Z,0.9
2023-05-14T10:52:29.916Z,1.5
2023-05-14T10:53:38.559Z,0.8
2023-05-14T10:54:48.231Z,0.6
2023-05-14T10:55:57.896Z,0.8
2023-05-14T10:57:07.574Z,0.8
2023-05-14T10:58:16.227Z,1.1
2023-05-14T10:59:23.874Z,1.5
2023-05-14T11:00:33.581Z,1
2023-05-14T11:01:43.300Z,1.3
2023-05-14T11:02:51.984Z,0.8
2023-05-14T11:04:01.609Z,0.8
2023-05-14T11:05:11.296Z,1.2
2023-05-14T11:06:21.120Z,0.7
2023-05-14T11:07:29.806Z,1.3
2023-05-14T11:08:38.525Z,1
2023-05-14T11:09:48.095Z,1.2
2023-05-14T11:10:56.846Z,2.4
2023-05-14T11:12:06.516Z,2.6
2023-05-14T11:13:15.190Z,0.9
2023-05-14T11:14:22.857Z,2.4
2023-05-14T11:15:32.566Z,0.6
2023-05-14T11:16:41.281Z,0.7
2023-05-14T11:17:49.965Z,0.6
2023-05-14T11:18:59.650Z,2.2
2023-05-14T11:20:08.363Z,1.8
2023-05-14T11:21:18.035Z,0.8
2023-05-14T11:22:27.680Z,1.5
2023-05-14T11:23:36.387Z,0.7
2023-05-14T11:24:46.057Z,0.7
2023-05-14T11:25:55.786Z,1.8
2023-05-14T11:27:05.407Z,0.6
2023-05-14T11:28:14.079Z,0.8
2023-05-14T11:29:22.770Z,1.3
2023-05-14T11:30:32.474Z,0.7
2023-05-14T11:31:42.218Z,1.7
2023-05-14T11:32:51.923Z,0.7
2023-05-14T11:34:01.512Z,0.7
2023-05-14T11:35:11.209Z,0.8
2023-05-14T11:36:20.913Z,0.7
2023-05-14T11:37:29.660Z,0.4
2023-05-14T11:38:38.333Z,0.4
2023-05-14T11:39:48.182Z,0.7
2023-05-14T11:40:57.780Z,0.4
2023-05-14T11:42:05.428Z,1.5
2023-05-14T11:43:15.124Z,0.6
2023-05-14T11:44:23.839Z,0.5
2023-05-14T11:45:32.499Z,0.6
2023-05-14T11:46:42.232Z,0.3
2023-05-14T11:47:50.968Z,1.2
2023-05-14T11:49:00.614Z,0.7
2023-05-14T11:50:10.249Z,0.5
2023-05-14T11:51:18.932Z,0.3
2023-05-14T11:52:28.643Z,1.5
2023-05-14T11:53:37.323Z,0.8
2023-05-14T11:54:46.022Z,0.2
2023-05-14T11:55:55.669Z,0.6
2023-05-14T11:57:03.403Z,1.1
2023-05-14T11:58:13.024Z,0.1
2023-05-14T11:59:21.691Z,0.4
2023-05-14T12:00:30.382Z,0.8
2023-05-14T12:01:39.048Z,0.4
2023-05-14T12:02:48.769Z,0.9
2023-05-14T12:03:57.507Z,0.6
2023-05-14T12:05:06.106Z,0.7
2023-05-14T12:06:14.767Z,1.6
2023-05-14T12:07:24.452Z,0.5
2023-05-14T12:08:33.163Z,0.2
2023-05-14T12:09:45.127Z,0.3
2023-05-14T12:10:52.467Z,0.3
2023-05-14T12:12:01.171Z,0.4
2023-05-14T12:13:10.880Z,0.3
2023-05-14T12:14:20.547Z,0.5
2023-05-14T12:15:30.230Z,0.3
2023-05-14T12:16:39.970Z,0.9
2023-05-14T12:17:48.621Z,0.3
2023-05-14T12:18:57.234Z,0.4
2023-05-14T12:20:06.881Z,0.2
2023-05-14T12:21:15.620Z,0.2
2023-05-14T12:22:24.347Z,0.4
2023-05-14T12:23:34.021Z,0.2
2023-05-14T12:24:43.678Z,0.4
2023-05-14T12:25:53.362Z,0.6
2023-05-14T12:27:03.064Z,0.6
2023-05-14T12:28:11.675Z,0.1
2023-05-14T12:29:21.397Z,0.3
2023-05-14T12:30:31.042Z,0.2
2023-05-14T12:31:40.814Z,0.5
2023-05-14T12:32:49.447Z,1
2023-05-14T12:33:58.104Z,0.6
2023-05-14T12:35:07.790Z,0.1
2023-05-14T12:36:21.579Z,0.2
2023-05-14T12:37:26.080Z,0.6
2023-05-14T12:38:35.731Z,0.4
2023-05-14T12:39:43.379Z,0.3
2023-05-14T12:40:53.058Z,0.2
2023-05-14T12:42:02.716Z,0.2
2023-05-14T12:43:12.389Z,0.2
2023-05-14T12:44:22.029Z,0.3
2023-05-14T12:45:30.716Z,0.2
2023-05-14T12:46:37.427Z,0.1
2023-05-14T12:47:47.110Z,0.1
2023-05-14T12:48:56.720Z,0.1
2023-05-14T12:50:06.444Z,0.1
2023-05-14T12:51:16.099Z,0.1
2023-05-14T12:53:36.371Z,0.1
2023-05-14T12:54:46.064Z,0.3
2023-05-14T12:55:54.709Z,0.2
2023-05-14T12:57:04.351Z,0.2
2023-05-14T12:58:14.014Z,0.2
2023-05-14T12:59:23.750Z,0.5
2023-05-14T13:00:33.391Z,0.2
2023-05-14T13:01:42.069Z,0.7
2023-05-14T13:02:51.719Z,0.2
2023-05-14T13:04:01.460Z,0.3
2023-05-14T13:05:11.100Z,0.2
2023-05-14T13:06:20.770Z,0.2
2023-05-14T13:07:29.401Z,0.3
2023-05-14T13:08:39.719Z,0.1
2023-05-14T13:09:47.779Z,0.1
2023-05-14T13:10:56.464Z,0.1
2023-05-14T13:12:06.135Z,0.1
2023-05-14T13:13:15.853Z,0.3
2023-05-14T13:14:25.523Z,0.5
2023-05-14T13:15:34.214Z,0.3
2023-05-14T13:16:41.850Z,0.2
2023-05-14T13:17:51.633Z,0.2
2023-05-14T13:19:00.338Z,1.4
2023-05-14T13:20:08.950Z,0.3
2023-05-14T13:21:18.618Z,0.4
2023-05-14T13:22:28.271Z,0.3
2023-05-14T13:23:37.949Z,0.2
2023-05-14T13:24:46.617Z,0.8
2023-05-14T13:25:55.298Z,0.1
2023-05-14T13:27:04.982Z,0.1
2023-05-14T13:28:13.709Z,0.3
2023-05-14T13:29:23.364Z,0.2
2023-05-14T13:30:32.072Z,0.2
2023-05-14T13:31:39.835Z,0.1
2023-05-14T13:32:49.528Z,0.2
2023-05-14T13:33:58.166Z,0.1
2023-05-14T13:35:05.837Z,0.4
2023-05-14T13:36:15.501Z,0.1
2023-05-14T13:37:24.209Z,0.1
2023-05-14T13:38:32.870Z,0.2
2023-05-14T13:39:42.510Z,0.2
2023-05-14T13:40:51.164Z,0.4
2023-05-14T13:42:00.838Z,0.7
2023-05-14T13:43:10.501Z,0.2
2023-05-14T13:44:19.146Z,0.3
2023-05-14T13:45:28.831Z,0.3
2023-05-14T13:46:38.527Z,0.1
2023-05-14T13:47:49.465Z,0.2
2023-05-14T13:48:58.819Z,0.3
2023-05-14T13:50:08.523Z,0.4
2023-05-14T13:51:18.259Z,0
2023-05-14T13:52:26.946Z,0.2
2023-05-14T13:53:35.590Z,0.1
2023-05-14T13:54:45.241Z,0.1
2023-05-14T13:55:54.941Z,0.5
2023-05-14T13:57:04.598Z,0.2
2023-05-14T13:58:13.246Z,0.1
2023-05-14T13:59:22.910Z,0.1
2023-05-14T14:00:32.604Z,0.1
2023-05-14T14:01:42.299Z,0.1
2023-05-14T14:02:50.954Z,0
2023-05-14T14:04:00.576Z,0.3
2023-05-14T14:05:09.294Z,0
2023-05-14T14:06:18.936Z,1.1
2023-05-14T14:07:28.592Z,0.4
2023-05-14T14:08:38.252Z,0.2
2023-05-14T14:09:51.389Z,0.2
2023-05-14T14:11:01.044Z,0.1
2023-05-14T14:12:09.722Z,0
2023-05-14T14:13:19.372Z,0.6
2023-05-14T14:14:28.051Z,0.2
2023-05-14T14:15:37.785Z,0.2
2023-05-14T14:16:46.453Z,0.1
2023-05-14T14:17:54.169Z,0
2023-05-14T14:19:03.852Z,0.4
2023-05-14T14:20:12.455Z,0
2023-05-14T14:21:21.129Z,0.1
2023-05-14T14:22:30.782Z,0.1
2023-05-14T14:23:39.481Z,0
2023-05-14T14:24:49.142Z,0.8
2023-05-14T14:25:57.815Z,0.1
2023-05-14T14:27:06.493Z,0.3
2023-05-14T14:28:17.164Z,0
2023-05-14T14:29:25.823Z,0
2023-05-14T14:30:34.467Z,0
2023-05-14T14:31:44.151Z,0.4
2023-05-14T14:32:53.915Z,0.1
2023-05-14T14:34:03.563Z,0.2
2023-05-14T14:35:13.201Z,0
2023-05-14T14:36:23.186Z,0.1
2023-05-14T14:37:33.042Z,0.1
2023-05-14T14:38:42.712Z,0
2023-05-14T14:39:51.361Z,0
2023-05-14T14:41:01.022Z,0
2023-05-14T14:42:09.693Z,0.1
2023-05-14T14:43:18.366Z,0
2023-05-14T14:44:26.015Z,0
2023-05-14T14:45:35.676Z,0
2023-05-14T14:46:45.310Z,0.3
2023-05-14T14:47:55.032Z,0
2023-05-14T14:49:03.656Z,0
2023-05-14T14:50:13.388Z,0
2023-05-14T14:51:23.009Z,0
2023-05-14T14:52:31.708Z,0
2023-05-14T14:53:41.370Z,0.2
2023-05-14T14:54:51.027Z,0.1
2023-05-14T14:56:00.673Z,0
2023-05-14T14:57:10.363Z,0
2023-05-14T14:58:18.024Z,0.1
2023-05-14T14:59:27.671Z,0.2
2023-05-14T15:00:37.331Z,0
2023-05-14T15:01:47.087Z,0
2023-05-14T15:02:56.731Z,0
2023-05-14T15:04:06.354Z,0
2023-05-14T15:05:15.049Z,0
2023-05-14T15:06:22.685Z,0.2
2023-05-14T15:07:32.389Z,0
2023-05-14T15:08:42.020Z,0.3
2023-05-14T15:09:49.659Z,0
2023-05-14T15:10:59.470Z,0
2023-05-14T15:12:09.122Z,0
2023-05-14T15:13:18.775Z,0.1
2023-05-14T15:14:27.423Z,0.2
2023-05-14T15:15:36.082Z,0
2023-05-14T15:16:45.822Z,0.2
2023-05-14T15:17:55.491Z,0
2023-05-14T15:19:04.218Z,0.1
2023-05-14T15:20:13.903Z,0
2023-05-14T15:21:22.566Z,0
2023-05-14T15:22:31.175Z,0
2023-05-14T15:23:40.851Z,0
2023-05-14T15:24:49.541Z,0
2023-05-14T15:25:59.204Z,0
2023-05-14T15:27:08.888Z,0.1
2023-05-14T15:28:17.558Z,0
2023-05-14T15:29:27.247Z,0.3
2023-05-14T15:30:35.994Z,0
2023-05-14T15:31:44.720Z,0.1
2023-05-14T15:32:54.350Z,0.1
2023-05-14T15:34:04.036Z,0.1
2023-05-14T15:35:13.726Z,0
2023-05-14T15:36:22.375Z,0.1
2023-05-14T15:37:32.081Z,0
2023-05-14T15:38:40.724Z,0.1
2023-05-14T15:39:50.400Z,0.1
2023-05-14T15:41:00.046Z,0.5
2023-05-14T15:42:09.710Z,0
2023-05-14T15:43:19.418Z,0
2023-05-14T15:44:29.112Z,0
2023-05-14T15:45:38.782Z,0
2023-05-14T15:46:46.545Z,0
2023-05-14T15:47:56.176Z,0
2023-05-14T15:49:05.829Z,0
2023-05-14T15:50:14.500Z,0
2023-05-14T15:51:24.180Z,0
2023-05-14T15:52:32.865Z,0.1
2023-05-14T15:53:42.729Z,0
2023-05-14T15:54:52.207Z,0
2023-05-14T15:56:01.869Z,0.1
2023-05-14T15:57:11.546Z,0.2
2023-05-14T15:58:20.240Z,0.1
2023-05-14T15:59:28.908Z,0.2
2023-05-14T16:00:38.577Z,0
2023-05-14T16:01:46.287Z,0.4
2023-05-14T16:02:56.002Z,0.5
2023-05-14T16:04:05.775Z,0.5